Time;durP1;ratioP1;P1;durP2;ratioP2;P2;SDS_P1;SDS_P2;PMS_P1;PMS_P2;Temp;Humidity;BMP_temperature;BMP_pressure;BME280_temperature;BME280_humidity;BME280_pressure;Samples;Min_cycle;Max_cycle;Signal;HPM_P1;HPM_P2
2023/08/12 00:00:11;;;;;;;;;;;21.50;89.60;;;;;;4995558;28;19934;-81
2023/08/12 00:02:38;;;;;;;;;;;21.60;89.60;;;;;;4995639;28;20000;-82
2023/08/12 00:05:04;;;;;;;;;;;21.50;89.60;;;;;;5005820;28;19910;-81
2023/08/12 00:07:30;;;;;;;;;;;21.50;89.50;;;;;;5008820;28;19913;-82
2023/08/12 00:09:56;;;;;;;;;;;21.60;89.20;;;;;;5007672;28;19917;-82
2023/08/12 00:12:21;;;;;;;;;;;21.60;89.30;;;;;;4999844;28;19928;-82
2023/08/12 00:14:47;;;;;;;;;;;21.50;89.30;;;;;;4998191;28;19928;-82
2023/08/12 00:17:12;;;;;;;;;;;21.50;89.50;;;;;;4997667;28;19918;-82
2023/08/12 00:19:38;;;;;;;;;;;21.50;89.30;;;;;;4994781;28;19917;-82
2023/08/12 00:22:04;;;;;;;;;;;21.50;89.60;;;;;;4993565;28;19941;-82
2023/08/12 00:24:30;;;;;;;;;;;21.40;89.70;;;;;;4996783;28;19916;-82
2023/08/12 00:26:55;;;;;;;;;;;21.30;89.60;;;;;;4995476;28;19932;-82
2023/08/12 00:29:21;;;;;;;;;;;21.40;89.80;;;;;;4995368;28;20370;-82
2023/08/12 00:31:46;;;;;;;;;;;21.50;89.50;;;;;;4993341;28;19925;-82
2023/08/12 00:34:15;;;;;;;;;;;21.50;89.10;;;;;;4997511;28;19914;-82
2023/08/12 00:36:40;;;;;;;;;;;21.50;89.10;;;;;;4990667;28;20288;-82
2023/08/12 00:39:44;;;;;;;;;;;21.30;89.50;;;;;;5157444;23;20028;-82
2023/08/12 00:42:36;;;;;;;;;;;21.40;89.60;;;;;;4987528;28;19964;-82
2023/08/12 00:45:16;;;;;;;;;;;21.50;89.70;;;;;;4967997;28;19921;-82
2023/08/12 00:51:35;;;;;;;;;;;21.50;89.30;;;;;;4979347;28;19917;-82
2023/08/12 00:54:05;;;;;;;;;;;21.40;89.50;;;;;;4998522;28;20413;-82
2023/08/12 00:56:37;;;;;;;;;;;21.50;89.60;;;;;;4996528;28;20467;-82
2023/08/12 00:59:06;;;;;;;;;;;21.40;89.50;;;;;;5028391;23;19941;-82
2023/08/12 01:01:32;;;;;;;;;;;21.50;89.70;;;;;;4995251;28;19914;-82
2023/08/12 01:04:01;;;;;;;;;;;21.50;89.70;;;;;;4996883;28;19913;-82
2023/08/12 01:06:27;;;;;;;;;;;21.50;89.70;;;;;;4995180;28;19913;-82
2023/08/12 01:08:55;;;;;;;;;;;21.50;89.60;;;;;;4995623;28;20152;-81
2023/08/12 01:11:31;;;;;;;;;;;21.30;89.90;;;;;;4994817;28;19914;-81
2023/08/12 01:13:56;;;;;;;;;;;21.30;90.30;;;;;;4994317;28;20379;-82
2023/08/12 01:16:24;;;;;;;;;;;21.30;90.30;;;;;;4995734;28;19950;-82
2023/08/12 01:18:50;;;;;;;;;;;21.30;90.50;;;;;;4996636;28;19909;-82
2023/08/12 01:24:49;;;;;;;;;;;21.20;90.90;;;;;;4974481;28;19979;-82
2023/08/12 01:27:17;;;;;;;;;;;21.20;91.00;;;;;;4990088;28;19921;-82
2023/08/12 01:29:53;;;;;;;;;;;21.30;90.90;;;;;;4996019;28;19916;-82
2023/08/12 01:32:27;;;;;;;;;;;21.30;90.90;;;;;;4995967;28;20547;-83
2023/08/12 01:35:05;;;;;;;;;;;21.30;91.00;;;;;;4994201;28;20333;-83
2023/08/12 01:37:32;;;;;;;;;;;21.40;90.40;;;;;;4993189;28;20007;-83
2023/08/12 01:40:00;;;;;;;;;;;21.30;90.40;;;;;;5000840;28;19978;-83
2023/08/12 01:42:25;;;;;;;;;;;21.20;90.80;;;;;;5007261;28;19925;-83
2023/08/12 01:44:51;;;;;;;;;;;21.20;90.70;;;;;;5005886;28;19917;-83
2023/08/12 01:47:16;;;;;;;;;;;21.10;90.90;;;;;;5003495;28;19914;-83
2023/08/12 01:49:42;;;;;;;;;;;21.10;91.00;;;;;;4997367;28;19945;-84
2023/08/12 01:52:08;;;;;;;;;;;21.10;91.10;;;;;;4996249;28;19918;-83
2023/08/12 01:54:34;;;;;;;;;;;21.20;90.80;;;;;;4997188;28;19910;-83
2023/08/12 01:57:05;;;;;;;;;;;21.20;90.80;;;;;;4996887;28;19918;-82
2023/08/12 01:59:37;;;;;;;;;;;21.10;90.80;;;;;;4993894;28;19922;-83
2023/08/12 02:02:02;;;;;;;;;;;21.10;90.90;;;;;;4996030;28;19914;-83
2023/08/12 02:04:28;;;;;;;;;;;21.10;90.80;;;;;;4997852;28;20356;-82
2023/08/12 02:06:54;;;;;;;;;;;21.10;90.80;;;;;;4995398;28;19918;-83
2023/08/12 02:09:19;;;;;;;;;;;21.10;90.70;;;;;;4994315;28;19958;-83
2023/08/12 02:11:45;;;;;;;;;;;21.10;90.80;;;;;;4996554;28;19922;-82
2023/08/12 02:14:10;;;;;;;;;;;21.10;90.80;;;;;;4998448;28;20286;-82
2023/08/12 02:16:36;;;;;;;;;;;21.10;90.90;;;;;;4996270;28;19936;-82
2023/08/12 02:19:01;;;;;;;;;;;21.00;91.10;;;;;;4996660;28;19952;-82
2023/08/12 02:21:27;;;;;;;;;;;21.00;91.10;;;;;;4997465;28;19913;-82
2023/08/12 02:23:52;;;;;;;;;;;21.00;91.10;;;;;;4997024;28;19910;-82
2023/08/12 02:26:18;;;;;;;;;;;21.10;91.10;;;;;;4993108;28;19960;-82
2023/08/12 02:28:43;;;;;;;;;;;21.00;91.00;;;;;;4994028;28;19914;-82
2023/08/12 02:31:09;;;;;;;;;;;21.00;91.10;;;;;;4994434;28;19968;-82
2023/08/12 02:33:34;;;;;;;;;;;21.00;91.20;;;;;;4992411;28;21376;-82
2023/08/12 02:36:00;;;;;;;;;;;21.00;91.20;;;;;;4992656;28;19917;-82
2023/08/12 02:38:25;;;;;;;;;;;21.00;91.20;;;;;;4993542;28;19914;-82
2023/08/12 02:40:51;;;;;;;;;;;21.00;91.20;;;;;;4995887;28;20020;-83
2023/08/12 02:43:17;;;;;;;;;;;21.00;91.10;;;;;;4993462;28;19914;-83
2023/08/12 02:45:42;;;;;;;;;;;21.00;91.20;;;;;;4995308;28;20661;-84
2023/08/12 02:48:17;;;;;;;;;;;21.00;91.10;;;;;;4995934;28;19969;-84
2023/08/12 02:50:42;;;;;;;;;;;21.00;91.00;;;;;;4994965;28;19914;-83
2023/08/12 02:53:08;;;;;;;;;;;21.00;90.90;;;;;;4996830;28;20364;-83
2023/08/12 02:55:33;;;;;;;;;;;21.00;91.00;;;;;;4993565;28;19957;-83
2023/08/12 02:57:59;;;;;;;;;;;21.00;90.80;;;;;;4993802;28;19918;-83
2023/08/12 03:00:24;;;;;;;;;;;21.00;90.70;;;;;;4994257;28;19945;-83
2023/08/12 03:02:50;;;;;;;;;;;20.90;90.80;;;;;;4993164;28;19922;-83
2023/08/12 03:05:16;;;;;;;;;;;20.80;91.10;;;;;;4993142;28;20396;-83
2023/08/12 03:07:41;;;;;;;;;;;20.90;91.00;;;;;;4989862;28;19921;-83
2023/08/12 03:10:07;;;;;;;;;;;21.00;90.90;;;;;;4999891;28;19916;-83
2023/08/12 03:12:32;;;;;;;;;;;20.90;90.80;;;;;;4993224;28;20016;-82
2023/08/12 03:14:58;;;;;;;;;;;20.90;90.90;;;;;;4992645;28;19918;-83
2023/08/12 03:17:23;;;;;;;;;;;20.90;90.80;;;;;;4993184;28;20404;-84
2023/08/12 03:19:49;;;;;;;;;;;20.90;90.80;;;;;;5004870;28;19902;-83
2023/08/12 03:22:15;;;;;;;;;;;20.90;91.00;;;;;;5013037;28;19985;-83
2023/08/12 03:24:40;;;;;;;;;;;20.90;91.00;;;;;;5007153;28;19921;-83
2023/08/12 03:27:06;;;;;;;;;;;20.90;90.90;;;;;;4998508;28;19910;-83
2023/08/12 03:29:31;;;;;;;;;;;20.90;91.00;;;;;;4996413;28;20377;-83
2023/08/12 03:31:57;;;;;;;;;;;20.90;91.10;;;;;;4996842;28;19973;-83
2023/08/12 03:34:22;;;;;;;;;;;20.80;91.10;;;;;;4993896;28;19969;-82
2023/08/12 03:36:48;;;;;;;;;;;20.80;91.20;;;;;;4991743;28;19925;-83
2023/08/12 03:39:14;;;;;;;;;;;20.80;91.40;;;;;;4993062;28;20378;-82
2023/08/12 03:41:39;;;;;;;;;;;20.80;91.40;;;;;;4994232;28;19977;-82
2023/08/12 03:44:05;;;;;;;;;;;20.80;91.50;;;;;;4991571;28;19937;-82
2023/08/12 03:46:31;;;;;;;;;;;20.70;91.60;;;;;;4989340;28;19914;-82
2023/08/12 03:48:56;;;;;;;;;;;20.80;91.50;;;;;;4989761;28;19921;-83
2023/08/12 03:51:22;;;;;;;;;;;20.70;91.60;;;;;;4988013;28;19972;-82
2023/08/12 03:53:47;;;;;;;;;;;20.70;91.50;;;;;;4985794;28;19922;-83
2023/08/12 03:56:15;;;;;;;;;;;20.80;91.50;;;;;;4988897;28;19918;-83
2023/08/12 03:58:40;;;;;;;;;;;20.80;91.30;;;;;;4991333;28;19985;-83
2023/08/12 04:01:06;;;;;;;;;;;20.80;91.20;;;;;;4990175;28;20012;-83
2023/08/12 04:03:31;;;;;;;;;;;20.80;91.40;;;;;;4988342;28;20008;-82
2023/08/12 04:05:57;;;;;;;;;;;20.80;91.30;;;;;;4991283;28;19925;-83
2023/08/12 04:08:23;;;;;;;;;;;20.70;91.30;;;;;;4994165;28;19914;-82
2023/08/12 04:10:49;;;;;;;;;;;20.70;91.20;;;;;;4992545;28;19928;-83
2023/08/12 04:13:14;;;;;;;;;;;20.70;91.30;;;;;;4992271;28;19913;-83
2023/08/12 04:15:40;;;;;;;;;;;20.80;91.30;;;;;;4992270;28;20012;-83
2023/08/12 04:18:06;;;;;;;;;;;20.80;91.30;;;;;;4994313;28;19921;-83
2023/08/12 04:20:31;;;;;;;;;;;20.80;91.10;;;;;;4994499;28;20004;-83
2023/08/12 04:22:56;;;;;;;;;;;20.80;91.00;;;;;;4994223;28;19921;-83
2023/08/12 04:25:22;;;;;;;;;;;20.80;91.30;;;;;;4995462;28;19960;-83
2023/08/12 04:27:49;;;;;;;;;;;20.80;91.10;;;;;;4992486;28;20340;-83
2023/08/12 04:30:15;;;;;;;;;;;20.70;91.20;;;;;;4993296;28;19977;-82
2023/08/12 04:32:41;;;;;;;;;;;20.80;91.30;;;;;;4990418;28;20433;-82
2023/08/12 04:35:06;;;;;;;;;;;20.90;91.10;;;;;;4987893;28;20076;-82
2023/08/12 04:37:32;;;;;;;;;;;20.90;90.90;;;;;;4988084;28;19942;-83
2023/08/12 04:39:58;;;;;;;;;;;20.90;90.90;;;;;;4993977;28;19917;-83
2023/08/12 04:42:23;;;;;;;;;;;20.80;91.00;;;;;;4993693;28;19936;-83
2023/08/12 04:44:49;;;;;;;;;;;20.70;91.20;;;;;;4993581;28;19926;-83
2023/08/12 04:47:14;;;;;;;;;;;20.80;91.40;;;;;;4991889;28;20376;-83
2023/08/12 04:49:40;;;;;;;;;;;20.90;91.30;;;;;;4986469;28;19920;-83
2023/08/12 04:52:06;;;;;;;;;;;20.80;91.10;;;;;;4997226;28;20514;-81
2023/08/12 04:54:32;;;;;;;;;;;20.90;91.10;;;;;;4997183;28;19914;-81
2023/08/12 04:56:58;;;;;;;;;;;20.90;91.10;;;;;;4996019;28;19922;-81
2023/08/12 04:59:24;;;;;;;;;;;20.90;91.20;;;;;;4990437;28;20378;-81
2023/08/12 05:01:49;;;;;;;;;;;20.90;91.30;;;;;;4996739;28;19917;-81
2023/08/12 05:04:15;;;;;;;;;;;20.90;91.20;;;;;;4996597;28;20301;-81
2023/08/12 05:06:40;;;;;;;;;;;20.90;91.20;;;;;;4990887;28;19996;-80
2023/08/12 05:09:07;;;;;;;;;;;20.90;91.10;;;;;;4992849;28;19956;-81
2023/08/12 05:11:32;;;;;;;;;;;20.90;91.10;;;;;;4999472;28;19910;-81
2023/08/12 05:13:58;;;;;;;;;;;20.90;91.00;;;;;;4996320;28;19961;-81
2023/08/12 05:16:23;;;;;;;;;;;20.80;91.00;;;;;;4992823;28;20001;-81
2023/08/12 05:18:48;;;;;;;;;;;20.80;91.30;;;;;;4991883;28;19914;-81
2023/08/12 05:21:14;;;;;;;;;;;20.90;91.30;;;;;;4997954;28;19910;-80
2023/08/12 05:23:39;;;;;;;;;;;20.90;91.40;;;;;;4999102;28;19913;-81
2023/08/12 05:26:05;;;;;;;;;;;20.90;91.40;;;;;;5003814;28;19918;-81
2023/08/12 05:28:30;;;;;;;;;;;20.90;91.50;;;;;;4999239;28;19914;-81
2023/08/12 05:30:56;;;;;;;;;;;20.90;91.30;;;;;;4999803;28;20337;-81
2023/08/12 05:33:21;;;;;;;;;;;21.00;91.40;;;;;;4997841;28;19914;-81
2023/08/12 05:35:48;;;;;;;;;;;21.10;91.30;;;;;;4995480;28;19983;-81
2023/08/12 05:38:13;;;;;;;;;;;21.10;91.20;;;;;;4995546;28;20085;-82
2023/08/12 05:40:38;;;;;;;;;;;21.10;91.10;;;;;;4998240;28;19987;-81
2023/08/12 05:43:04;;;;;;;;;;;21.10;91.00;;;;;;4997321;28;19914;-81
2023/08/12 05:45:30;;;;;;;;;;;21.10;90.80;;;;;;4996279;28;20008;-81
2023/08/12 05:47:55;;;;;;;;;;;21.10;90.80;;;;;;4994061;28;19984;-81
2023/08/12 05:50:21;;;;;;;;;;;21.20;90.90;;;;;;4998937;28;19914;-81
2023/08/12 05:52:47;;;;;;;;;;;21.20;90.80;;;;;;4996220;28;20021;-81
2023/08/12 05:55:12;;;;;;;;;;;21.20;90.70;;;;;;4992729;28;20029;-81
2023/08/12 05:57:37;;;;;;;;;;;21.20;90.80;;;;;;4992299;28;19921;-81
2023/08/12 06:00:03;;;;;;;;;;;21.10;90.90;;;;;;4996749;28;20366;-81
2023/08/12 06:02:29;;;;;;;;;;;21.20;90.70;;;;;;4997656;28;20068;-82
2023/08/12 06:04:54;;;;;;;;;;;21.20;90.60;;;;;;4991807;28;19917;-81
2023/08/12 06:07:20;;;;;;;;;;;21.20;90.70;;;;;;4987228;28;19929;-82
2023/08/12 06:09:45;;;;;;;;;;;21.20;90.80;;;;;;4995840;28;19961;-82
2023/08/12 06:12:10;;;;;;;;;;;21.20;90.80;;;;;;4995294;28;19917;-83
2023/08/12 06:14:39;;;;;;;;;;;21.30;90.60;;;;;;4995844;28;20008;-83
2023/08/12 06:17:05;;;;;;;;;;;21.20;89.80;;;;;;4990300;28;20428;-83
2023/08/12 06:19:30;;;;;;;;;;;21.30;90.10;;;;;;4993124;28;19922;-83
2023/08/12 06:21:56;;;;;;;;;;;21.20;90.10;;;;;;4994463;28;19914;-83
2023/08/12 06:24:21;;;;;;;;;;;21.10;90.30;;;;;;4993694;28;20366;-82
2023/08/12 06:26:47;;;;;;;;;;;21.20;90.20;;;;;;4992132;28;19914;-84
2023/08/12 06:29:12;;;;;;;;;;;21.30;90.30;;;;;;4990604;28;19957;-84
2023/08/12 06:31:38;;;;;;;;;;;21.30;90.20;;;;;;4991638;28;19918;-86
2023/08/12 06:34:03;;;;;;;;;;;21.30;90.10;;;;;;4989859;28;19914;-83
2023/08/12 06:36:29;;;;;;;;;;;21.40;90.00;;;;;;5000667;28;19921;-82
2023/08/12 06:38:54;;;;;;;;;;;21.40;90.00;;;;;;5010369;28;19992;-85
2023/08/12 06:41:20;;;;;;;;;;;21.50;89.90;;;;;;5011957;28;19909;-86
2023/08/12 06:43:45;;;;;;;;;;;21.50;89.70;;;;;;4997427;28;20358;-87
2023/08/12 06:46:11;;;;;;;;;;;21.40;89.70;;;;;;4991764;28;19985;-85
2023/08/12 06:48:36;;;;;;;;;;;21.50;89.90;;;;;;4996418;28;19960;-85
2023/08/12 06:51:06;;;;;;;;;;;21.40;89.80;;;;;;4996642;28;20010;-85
2023/08/12 06:53:32;;;;;;;;;;;21.50;89.50;;;;;;4991904;28;19918;-86
2023/08/12 06:55:57;;;;;;;;;;;21.40;89.30;;;;;;4991936;28;19928;-86
2023/08/12 06:58:23;;;;;;;;;;;21.40;89.30;;;;;;4993538;28;19924;-85
2023/08/12 07:00:48;;;;;;;;;;;21.40;89.40;;;;;;4996059;28;19917;-87
2023/08/12 07:03:14;;;;;;;;;;;21.40;89.10;;;;;;4993024;28;19921;-91
2023/08/12 07:05:39;;;;;;;;;;;21.30;89.50;;;;;;4993598;28;19913;-85
2023/08/12 07:08:05;;;;;;;;;;;21.30;89.30;;;;;;4991949;28;19910;-85
2023/08/12 07:10:30;;;;;;;;;;;21.30;89.30;;;;;;4991324;28;19920;-86
2023/08/12 07:12:56;;;;;;;;;;;21.20;89.30;;;;;;4992383;28;19921;-87
2023/08/12 07:15:21;;;;;;;;;;;21.20;89.50;;;;;;4991882;28;19918;-88
2023/08/12 07:17:47;;;;;;;;;;;21.10;90.10;;;;;;4991316;28;19920;-87
2023/08/12 07:20:12;;;;;;;;;;;21.30;89.30;;;;;;4992586;28;19909;-86
2023/08/12 07:22:38;;;;;;;;;;;21.10;89.80;;;;;;4991852;28;19921;-86
2023/08/12 07:25:03;;;;;;;;;;;21.00;90.30;;;;;;4991059;28;19913;-89
2023/08/12 07:27:29;;;;;;;;;;;20.90;90.50;;;;;;4990884;28;19920;-88
2023/08/12 07:29:54;;;;;;;;;;;21.00;90.60;;;;;;4992084;28;19910;-88
2023/08/12 07:32:20;;;;;;;;;;;21.00;90.60;;;;;;4993585;28;20009;-87
2023/08/12 07:34:46;;;;;;;;;;;21.00;90.50;;;;;;4990683;28;19917;-85
2023/08/12 07:37:11;;;;;;;;;;;21.10;90.30;;;;;;4992259;28;19921;-86
2023/08/12 07:39:37;;;;;;;;;;;21.10;90.10;;;;;;4989773;28;20374;-88
2023/08/12 07:42:03;;;;;;;;;;;21.10;90.30;;;;;;4988505;28;19997;-86
2023/08/12 07:44:28;;;;;;;;;;;21.20;89.80;;;;;;4991396;28;19995;-86
2023/08/12 07:46:54;;;;;;;;;;;21.20;90.10;;;;;;4991061;28;19968;-86
2023/08/12 07:49:19;;;;;;;;;;;21.20;90.20;;;;;;4992517;28;19918;-86
2023/08/12 07:51:45;;;;;;;;;;;21.30;90.50;;;;;;4990995;28;20301;-81
2023/08/12 07:54:10;;;;;;;;;;;21.50;90.00;;;;;;4989943;28;19914;-85
2023/08/12 07:56:36;;;;;;;;;;;21.70;89.30;;;;;;4990813;28;20386;-89
2023/08/12 07:59:01;;;;;;;;;;;21.80;89.40;;;;;;4990668;28;20324;-88
2023/08/12 08:01:29;;;;;;;;;;;21.80;88.70;;;;;;4991456;28;19920;-90
2023/08/12 08:03:54;;;;;;;;;;;21.90;88.60;;;;;;4991883;28;19910;-84
2023/08/12 08:06:21;;;;;;;;;;;22.00;88.40;;;;;;4991696;28;19919;-83
2023/08/12 08:08:47;;;;;;;;;;;22.10;88.50;;;;;;4990522;28;20539;-85
2023/08/12 08:11:13;;;;;;;;;;;22.10;88.50;;;;;;4991044;28;20008;-86
2023/08/12 08:13:38;;;;;;;;;;;22.20;88.70;;;;;;4989068;28;20196;-86
2023/08/12 08:16:06;;;;;;;;;;;22.30;88.00;;;;;;4994920;28;19918;-91
2023/08/12 08:18:32;;;;;;;;;;;22.50;87.40;;;;;;4992984;28;19968;-84
2023/08/12 08:20:57;;;;;;;;;;;22.40;87.00;;;;;;4992365;28;19918;-83
2023/08/12 08:23:23;;;;;;;;;;;22.40;86.80;;;;;;4986125;28;19949;-85
2023/08/12 08:25:49;;;;;;;;;;;22.50;86.50;;;;;;4990364;28;19964;-84
2023/08/12 08:28:14;;;;;;;;;;;22.40;86.10;;;;;;4994283;28;19936;-85
2023/08/12 08:30:40;;;;;;;;;;;22.50;86.30;;;;;;4993313;28;19910;-82
2023/08/12 08:33:05;;;;;;;;;;;22.60;86.70;;;;;;4988524;28;20051;-83
2023/08/12 08:35:31;;;;;;;;;;;22.60;86.40;;;;;;4991912;28;19914;-81
2023/08/12 08:37:56;;;;;;;;;;;22.80;85.90;;;;;;4990898;28;20007;-82
2023/08/12 08:40:22;;;;;;;;;;;22.70;85.70;;;;;;4992581;28;19917;-82
2023/08/12 08:42:51;;;;;;;;;;;22.80;85.70;;;;;;4989665;28;20717;-83
2023/08/12 08:45:25;;;;;;;;;;;22.70;85.40;;;;;;4992747;28;19945;-84
2023/08/12 08:47:51;;;;;;;;;;;22.60;85.70;;;;;;4992472;28;19913;-82
2023/08/12 08:50:17;;;;;;;;;;;22.50;85.50;;;;;;4989320;28;19914;-85
2023/08/12 08:52:45;;;;;;;;;;;22.30;86.00;;;;;;4987527;28;20447;-85
2023/08/12 08:55:11;;;;;;;;;;;22.20;86.60;;;;;;4990080;28;19918;-90
2023/08/12 08:57:39;;;;;;;;;;;22.10;86.70;;;;;;4987298;28;20008;-87
2023/08/12 09:00:07;;;;;;;;;;;22.20;87.10;;;;;;4990326;28;19922;-87
2023/08/12 09:05:50;;;;;;;;;;;22.50;86.60;;;;;;4993955;28;19914;-88
2023/08/12 09:08:33;;;;;;;;;;;;;;;;;;;;;
2023/08/12 09:11:13;;;;;;;;;;;22.40;86.30;;;;;;4991376;28;20374;-89
2023/08/12 09:13:48;;;;;;;;;;;22.30;86.70;;;;;;4992158;28;19918;-89
2023/08/12 09:16:25;;;;;;;;;;;;;;;;;;;;;
2023/08/12 09:19:00;;;;;;;;;;;22.50;86.00;;;;;;5052923;23;19926;-89
2023/08/12 09:21:32;;;;;;;;;;;22.50;86.60;;;;;;5053276;23;19933;-88
2023/08/12 09:24:33;;;;;;;;;;;;;;;;;;;;;
2023/08/12 09:32:34;;;;;;;;;;;22.80;86.30;;;;;;4986559;28;19913;-89
2023/08/12 09:35:15;;;;;;;;;;;22.90;85.50;;;;;;4974696;28;19921;-89
2023/08/12 09:37:41;;;;;;;;;;;22.80;85.70;;;;;;4984958;28;19914;-89
2023/08/12 09:40:11;;;;;;;;;;;22.70;85.50;;;;;;4985973;28;20406;-89
2023/08/12 09:42:43;;;;;;;;;;;22.80;85.80;;;;;;4978936;28;19914;-88
2023/08/12 09:45:12;;;;;;;;;;;22.80;86.00;;;;;;4987432;28;20010;-89
2023/08/12 09:47:41;;;;;;;;;;;22.80;85.60;;;;;;4993288;28;19929;-90
2023/08/12 09:50:10;;;;;;;;;;;22.80;85.30;;;;;;4994506;28;19996;-89
2023/08/12 09:52:39;;;;;;;;;;;22.80;85.20;;;;;;4993659;28;19921;-89
2023/08/12 09:55:08;;;;;;;;;;;23.00;84.80;;;;;;4989834;28;20530;-89
2023/08/12 09:57:36;;;;;;;;;;;23.10;85.10;;;;;;5009721;28;20387;-89
2023/08/12 10:00:03;;;;;;;;;;;23.10;84.30;;;;;;4996340;28;20282;-89
2023/08/12 10:02:29;;;;;;;;;;;23.00;84.80;;;;;;4977561;28;19993;-90
2023/08/12 10:04:56;;;;;;;;;;;22.90;84.50;;;;;;4986904;28;20000;-89
2023/08/12 10:07:22;;;;;;;;;;;22.80;85.30;;;;;;4994370;28;19913;-88
2023/08/12 10:09:50;;;;;;;;;;;22.80;84.70;;;;;;4983746;28;20354;-88
2023/08/12 10:12:17;;;;;;;;;;;22.90;84.40;;;;;;4990684;28;19914;-89
2023/08/12 10:14:42;;;;;;;;;;;23.00;84.20;;;;;;4981741;28;19918;-89
2023/08/12 10:17:11;;;;;;;;;;;23.00;84.30;;;;;;4978206;28;19918;-89
2023/08/12 10:19:36;;;;;;;;;;;23.10;83.60;;;;;;4982995;28;19989;-89
2023/08/12 10:22:03;;;;;;;;;;;23.10;83.10;;;;;;4983182;28;19949;-89
2023/08/12 10:24:32;;;;;;;;;;;23.20;83.30;;;;;;4982170;28;19956;-90
2023/08/12 10:27:01;;;;;;;;;;;23.30;82.80;;;;;;4989495;28;20272;-89
2023/08/12 10:29:37;;;;;;;;;;;23.50;82.60;;;;;;4985863;28;19945;-89
2023/08/12 10:32:05;;;;;;;;;;;23.50;81.90;;;;;;4987064;28;19914;-89
2023/08/12 10:34:32;;;;;;;;;;;23.60;81.50;;;;;;4984679;28;19910;-88
2023/08/12 10:37:01;;;;;;;;;;;23.70;81.60;;;;;;4979706;28;19976;-90
2023/08/12 10:39:29;;;;;;;;;;;23.70;80.90;;;;;;4974554;28;19910;-88
2023/08/12 10:41:58;;;;;;;;;;;23.80;80.80;;;;;;4987087;28;20338;-89
2023/08/12 10:44:40;;;;;;;;;;;23.70;80.40;;;;;;4975369;28;19910;-88
2023/08/12 10:47:12;;;;;;;;;;;23.60;80.90;;;;;;4987596;28;19916;-89
2023/08/12 10:49:41;;;;;;;;;;;23.60;81.50;;;;;;4991261;28;19914;-90
2023/08/12 10:52:19;;;;;;;;;;;23.60;81.00;;;;;;4990614;28;19968;-89
2023/08/12 10:54:52;;;;;;;;;;;23.60;80.40;;;;;;4983091;28;19909;-90
2023/08/12 10:57:40;;;;;;;;;;;23.60;81.00;;;;;;4990835;28;19922;-90
2023/08/12 11:00:11;;;;;;;;;;;23.70;80.70;;;;;;4973061;28;19910;-89
2023/08/12 11:02:37;;;;;;;;;;;23.80;80.50;;;;;;4974218;28;19916;-90
2023/08/12 11:05:07;;;;;;;;;;;24.00;80.40;;;;;;4983569;28;19936;-89
2023/08/12 11:07:33;;;;;;;;;;;24.30;79.20;;;;;;4982602;28;20339;-90
2023/08/12 11:10:00;;;;;;;;;;;24.30;78.40;;;;;;4974293;28;20001;-89
2023/08/12 11:12:29;;;;;;;;;;;24.30;78.20;;;;;;4976443;28;20395;-90
2023/08/12 11:14:57;;;;;;;;;;;24.10;77.80;;;;;;4987786;28;19921;-90
2023/08/12 11:17:30;;;;;;;;;;;24.00;78.60;;;;;;4972914;28;19957;-90
2023/08/12 11:19:55;;;;;;;;;;;23.90;79.80;;;;;;4985280;28;19922;-90
2023/08/12 11:22:21;;;;;;;;;;;23.80;79.90;;;;;;4995515;28;19913;-89
2023/08/12 11:24:46;;;;;;;;;;;23.60;81.10;;;;;;4986796;28;19918;-89
2023/08/12 11:27:14;;;;;;;;;;;23.30;83.20;;;;;;4974362;28;20415;-88
2023/08/12 11:29:39;;;;;;;;;;;23.20;83.80;;;;;;4982901;28;19914;-88
2023/08/12 11:32:05;;;;;;;;;;;23.00;85.10;;;;;;4972582;28;19914;-90
2023/08/12 11:34:33;;;;;;;;;;;22.90;85.70;;;;;;4973021;28;19969;-90
2023/08/12 11:37:00;;;;;;;;;;;22.60;86.60;;;;;;4991116;28;20383;-90
2023/08/12 11:39:28;;;;;;;;;;;22.60;87.40;;;;;;4976256;28;20285;-89
2023/08/12 11:41:53;;;;;;;;;;;22.50;87.90;;;;;;4991184;28;20446;-89
2023/08/12 11:44:23;;;;;;;;;;;22.40;88.30;;;;;;4978062;28;19910;-91
2023/08/12 11:46:49;;;;;;;;;;;22.30;88.70;;;;;;4978874;28;20437;-90
2023/08/12 11:49:17;;;;;;;;;;;22.30;88.90;;;;;;4977598;28;19910;-89
2023/08/12 11:51:44;;;;;;;;;;;22.40;89.20;;;;;;4972398;28;20380;-90
2023/08/12 11:54:10;;;;;;;;;;;22.40;89.40;;;;;;4984442;28;19914;-91
2023/08/12 11:56:35;;;;;;;;;;;22.60;89.20;;;;;;4990525;28;20434;-90
2023/08/12 11:59:01;;;;;;;;;;;22.60;88.80;;;;;;4976957;28;20371;-90
2023/08/12 12:01:28;;;;;;;;;;;22.70;88.60;;;;;;4985152;28;20374;-88
2023/08/12 12:03:54;;;;;;;;;;;22.80;87.80;;;;;;4972402;28;19914;-90
2023/08/12 12:06:32;;;;;;;;;;;23.00;87.30;;;;;;4973428;28;19917;-90
2023/08/12 12:09:09;;;;;;;;;;;23.20;87.20;;;;;;4979539;28;19949;-89
2023/08/12 12:11:36;;;;;;;;;;;23.30;86.60;;;;;;4986416;28;20002;-90
2023/08/12 12:14:03;;;;;;;;;;;23.20;86.20;;;;;;4985997;28;19917;-88
2023/08/12 12:16:44;;;;;;;;;;;23.20;86.60;;;;;;4983285;28;19919;-89
2023/08/12 12:19:16;;;;;;;;;;;23.00;86.80;;;;;;4973860;28;19910;-90
2023/08/12 12:21:45;;;;;;;;;;;22.90;87.20;;;;;;4973459;28;19910;-90
2023/08/12 12:24:10;;;;;;;;;;;23.00;87.10;;;;;;4978448;28;19914;-89
2023/08/12 12:26:36;;;;;;;;;;;23.20;86.90;;;;;;4976930;28;19910;-90
2023/08/12 12:29:05;;;;;;;;;;;23.40;86.70;;;;;;4984808;28;19919;-90
2023/08/12 12:31:40;;;;;;;;;;;23.60;86.10;;;;;;4984763;28;19916;-90
2023/08/12 12:34:06;;;;;;;;;;;23.60;85.90;;;;;;4982499;28;19917;-89
2023/08/12 12:36:36;;;;;;;;;;;23.60;85.80;;;;;;4985230;28;19922;-89
2023/08/12 12:39:02;;;;;;;;;;;23.60;85.20;;;;;;4983755;28;19996;-90
2023/08/12 12:41:31;;;;;;;;;;;23.70;86.20;;;;;;4974836;28;20364;-88
2023/08/12 12:43:56;;;;;;;;;;;24.00;85.80;;;;;;4986848;28;19909;-89
2023/08/12 12:46:25;;;;;;;;;;;24.30;84.10;;;;;;5005729;28;19978;-90
2023/08/12 12:48:50;;;;;;;;;;;24.50;84.40;;;;;;5008273;28;19914;-88
2023/08/12 12:51:16;;;;;;;;;;;24.50;83.00;;;;;;4999923;28;20020;-90
2023/08/12 12:53:42;;;;;;;;;;;24.70;82.10;;;;;;4984099;28;19914;-89
2023/08/12 12:56:07;;;;;;;;;;;24.70;81.00;;;;;;4988467;28;19914;-89
2023/08/12 12:58:33;;;;;;;;;;;24.70;81.80;;;;;;4986292;28;20339;-88
2023/08/12 13:01:00;;;;;;;;;;;24.60;81.00;;;;;;4975234;28;19954;-90
2023/08/12 13:03:26;;;;;;;;;;;24.60;82.00;;;;;;4977676;28;20280;-89
2023/08/12 13:05:53;;;;;;;;;;;24.60;81.10;;;;;;4986229;28;19914;-89
2023/08/12 13:08:19;;;;;;;;;;;24.30;81.30;;;;;;4994722;28;19932;-90
2023/08/12 13:10:44;;;;;;;;;;;23.80;82.10;;;;;;4995708;28;20432;-88
2023/08/12 13:13:10;;;;;;;;;;;23.30;84.30;;;;;;4990141;28;19914;-88
2023/08/12 13:15:36;;;;;;;;;;;22.80;85.70;;;;;;4993407;28;19979;-87
2023/08/12 13:18:01;;;;;;;;;;;22.10;87.30;;;;;;4982711;28;20395;-87
2023/08/12 13:20:27;;;;;;;;;;;22.00;88.70;;;;;;4976323;28;19914;-87
2023/08/12 13:22:52;;;;;;;;;;;21.80;89.50;;;;;;4974517;28;20053;-87
2023/08/12 13:25:18;;;;;;;;;;;21.80;90.00;;;;;;4976096;28;20064;-87
2023/08/12 13:27:43;;;;;;;;;;;21.70;90.30;;;;;;4977540;28;20367;-87
2023/08/12 13:30:11;;;;;;;;;;;21.80;90.30;;;;;;4975999;28;19910;-87
2023/08/12 13:32:36;;;;;;;;;;;21.80;90.10;;;;;;4982578;28;19925;-87
2023/08/12 13:35:02;;;;;;;;;;;21.70;90.50;;;;;;4974286;28;19911;-87
2023/08/12 13:37:28;;;;;;;;;;;21.80;90.90;;;;;;4975140;28;19977;-87
2023/08/12 13:39:53;;;;;;;;;;;21.80;90.60;;;;;;4975198;28;20355;-87
2023/08/12 13:42:18;;;;;;;;;;;21.90;90.70;;;;;;4981615;28;20391;-87
2023/08/12 13:44:44;;;;;;;;;;;21.90;90.50;;;;;;4982818;28;20289;-87
2023/08/12 13:47:09;;;;;;;;;;;21.90;90.40;;;;;;4973935;28;19910;-87
2023/08/12 13:49:35;;;;;;;;;;;21.80;90.20;;;;;;4991896;28;19910;-87
2023/08/12 13:52:00;;;;;;;;;;;22.00;90.10;;;;;;4993663;28;19917;-87
2023/08/12 13:54:26;;;;;;;;;;;21.90;90.00;;;;;;4993253;28;20389;-87
2023/08/12 13:56:51;;;;;;;;;;;22.00;89.90;;;;;;4991355;28;19921;-87
2023/08/12 13:59:16;;;;;;;;;;;22.00;90.10;;;;;;4985764;28;20012;-88
2023/08/12 14:01:42;;;;;;;;;;;22.10;90.40;;;;;;4975904;28;19946;-86
2023/08/12 14:04:07;;;;;;;;;;;22.10;90.30;;;;;;4980288;28;19918;-87
2023/08/12 14:06:33;;;;;;;;;;;22.10;90.00;;;;;;4976922;28;19929;-87
2023/08/12 14:08:58;;;;;;;;;;;22.10;90.10;;;;;;4981573;28;19914;-88
2023/08/12 14:11:24;;;;;;;;;;;22.10;90.10;;;;;;4989630;28;19917;-87
2023/08/12 14:13:49;;;;;;;;;;;22.10;90.00;;;;;;5005495;28;19914;-88
2023/08/12 14:16:15;;;;;;;;;;;22.10;90.00;;;;;;4995674;28;19925;-89
2023/08/12 14:18:40;;;;;;;;;;;22.10;89.50;;;;;;4992477;28;19964;-88
2023/08/12 14:21:05;;;;;;;;;;;22.10;89.80;;;;;;4984835;28;19964;-88
2023/08/12 14:23:31;;;;;;;;;;;22.10;90.10;;;;;;4992794;28;19917;-87
2023/08/12 14:25:56;;;;;;;;;;;22.10;90.00;;;;;;4975436;28;19917;-88
2023/08/12 14:28:22;;;;;;;;;;;22.20;89.80;;;;;;4991968;28;19925;-88
2023/08/12 14:30:47;;;;;;;;;;;22.10;89.70;;;;;;4974940;28;19921;-88
2023/08/12 14:33:12;;;;;;;;;;;22.10;89.60;;;;;;4974663;28;20454;-89
2023/08/12 14:35:38;;;;;;;;;;;22.20;89.80;;;;;;4982273;28;19909;-88